sensor_id;sensor_type;location;lat;lon;timestamp;pressure;altitude;pressure_sealevel;temperature;humidity
13732;BME280;6937;56.096;12.664;2024-03-17T00:00:48;101814.00;;;2.97;100.00
13732;BME280;6937;56.096;12.664;2024-03-17T00:03:13;101808.78;;;2.93;100.00
13732;BME280;6937;56.096;12.664;2024-03-17T00:05:38;101807.22;;;2.86;100.00
13732;BME280;6937;56.096;12.664;2024-03-17T00:08:04;101802.88;;;2.84;100.00
13732;BME280;6937;56.096;12.664;2024-03-17T00:10:33;101809.97;;;2.82;100.00
13732;BME280;6937;56.096;12.664;2024-03-17T00:12:59;101824.00;;;2.84;100.00
13732;BME280;6937;56.096;12.664;2024-03-17T00:15:25;101840.81;;;2.80;100.00
13732;BME280;6937;56.096;12.664;2024-03-17T00:17:50;101836.50;;;2.76;100.00
13732;BME280;6937;56.096;12.664;2024-03-17T00:20:15;101838.34;;;2.72;100.00
13732;BME280;6937;56.096;12.664;2024-03-17T00:22:48;101854.19;;;2.72;100.00
13732;BME280;6937;56.096;12.664;2024-03-17T00:25:14;101857.88;;;2.65;100.00
13732;BME280;6937;56.096;12.664;2024-03-17T00:27:40;101858.84;;;2.61;100.00
13732;BME280;6937;56.096;12.664;2024-03-17T00:30:09;101855.25;;;2.64;100.00
13732;BME280;6937;56.096;12.664;2024-03-17T00:32:37;101867.66;;;2.60;100.00
13732;BME280;6937;56.096;12.664;2024-03-17T00:35:02;101858.78;;;2.63;100.00
13732;BME280;6937;56.096;12.664;2024-03-17T00:37:29;101866.53;;;2.70;100.00
13732;BME280;6937;56.096;12.664;2024-03-17T00:39:55;101868.34;;;2.70;100.00
13732;BME280;6937;56.096;12.664;2024-03-17T00:42:20;101873.72;;;2.64;100.00
13732;BME280;6937;56.096;12.664;2024-03-17T00:44:45;101879.97;;;2.60;100.00
13732;BME280;6937;56.096;12.664;2024-03-17T00:47:11;101879.22;;;2.55;100.00
13732;BME280;6937;56.096;12.664;2024-03-17T00:49:36;101874.03;;;2.50;100.00
13732;BME280;6937;56.096;12.664;2024-03-17T00:52:01;101883.72;;;2.50;100.00
13732;BME280;6937;56.096;12.664;2024-03-17T00:54:26;101890.06;;;2.41;100.00
13732;BME280;6937;56.096;12.664;2024-03-17T00:56:52;101894.59;;;2.34;100.00
13732;BME280;6937;56.096;12.664;2024-03-17T00:59:17;101893.78;;;2.32;100.00
13732;BME280;6937;56.096;12.664;2024-03-17T01:01:43;101907.00;;;2.29;100.00
13732;BME280;6937;56.096;12.664;2024-03-17T01:04:09;101907.94;;;2.27;100.00
13732;BME280;6937;56.096;12.664;2024-03-17T01:06:34;101916.72;;;2.27;100.00
13732;BME280;6937;56.096;12.664;2024-03-17T01:08:59;101922.88;;;2.28;100.00
13732;BME280;6937;56.096;12.664;2024-03-17T01:11:25;101928.97;;;2.30;100.00
13732;BME280;6937;56.096;12.664;2024-03-17T01:13:51;101934.25;;;2.30;100.00
13732;BME280;6937;56.096;12.664;2024-03-17T01:16:16;101937.75;;;2.32;100.00
13732;BME280;6937;56.096;12.664;2024-03-17T01:18:41;101933.34;;;2.32;100.00
13732;BME280;6937;56.096;12.664;2024-03-17T01:21:08;101942.94;;;2.35;100.00
13732;BME280;6937;56.096;12.664;2024-03-17T01:23:34;101939.38;;;2.37;100.00
13732;BME280;6937;56.096;12.664;2024-03-17T01:25:59;101939.31;;;2.40;100.00
13732;BME280;6937;56.096;12.664;2024-03-17T01:28:24;101946.31;;;2.41;100.00
13732;BME280;6937;56.096;12.664;2024-03-17T01:30:50;101945.44;;;2.41;100.00
13732;BME280;6937;56.096;12.664;2024-03-17T01:33:15;101939.38;;;2.37;100.00
13732;BME280;6937;56.096;12.664;2024-03-17T01:35:42;101949.03;;;2.37;100.00
13732;BME280;6937;56.096;12.664;2024-03-17T01:38:08;101954.31;;;2.38;100.00
13732;BME280;6937;56.096;12.664;2024-03-17T01:40:35;101959.44;;;2.44;100.00
13732;BME280;6937;56.096;12.664;2024-03-17T01:43:01;101970.94;;;2.43;100.00
13732;BME280;6937;56.096;12.664;2024-03-17T01:45:32;101971.81;;;2.42;100.00
13732;BME280;6937;56.096;12.664;2024-03-17T01:48:02;101972.78;;;2.38;100.00
13732;BME280;6937;56.096;12.664;2024-03-17T01:50:35;101983.44;;;2.32;100.00
13732;BME280;6937;56.096;12.664;2024-03-17T01:53:05;101994.97;;;2.28;100.00
13732;BME280;6937;56.096;12.664;2024-03-17T01:55:33;102003.72;;;2.29;100.00
13732;BME280;6937;56.096;12.664;2024-03-17T01:58:00;102008.16;;;2.27;100.00
13732;BME280;6937;56.096;12.664;2024-03-17T02:00:25;102013.38;;;2.30;100.00
13732;BME280;6937;56.096;12.664;2024-03-17T02:02:52;102024.81;;;2.30;100.00
13732;BME280;6937;56.096;12.664;2024-03-17T02:05:17;102019.53;;;2.30;100.00
13732;BME280;6937;56.096;12.664;2024-03-17T02:07:43;102023.03;;;2.31;100.00
13732;BME280;6937;56.096;12.664;2024-03-17T02:10:08;102027.44;;;2.32;100.00
13732;BME280;6937;56.096;12.664;2024-03-17T02:12:35;102038.78;;;2.35;100.00
13732;BME280;6937;56.096;12.664;2024-03-17T02:15:01;102045.84;;;2.33;100.00
13732;BME280;6937;56.096;12.664;2024-03-17T02:17:30;102042.31;;;2.34;100.00
13732;BME280;6937;56.096;12.664;2024-03-17T02:19:55;102046.72;;;2.34;100.00
13732;BME280;6937;56.096;12.664;2024-03-17T02:22:21;102045.91;;;2.29;100.00
13732;BME280;6937;56.096;12.664;2024-03-17T02:24:46;102045.09;;;2.25;100.00
13732;BME280;6937;56.096;12.664;2024-03-17T02:27:12;102053.06;;;2.22;100.00
13732;BME280;6937;56.096;12.664;2024-03-17T02:29:37;102058.41;;;2.18;100.00
13732;BME280;6937;56.096;12.664;2024-03-17T02:32:03;102058.53;;;2.13;100.00
13732;BME280;6937;56.096;12.664;2024-03-17T02:34:35;102059.47;;;2.09;100.00
13732;BME280;6937;56.096;12.664;2024-03-17T02:37:01;102071.75;;;2.10;100.00
13732;BME280;6937;56.096;12.664;2024-03-17T02:39:28;102073.59;;;2.05;100.00
13732;BME280;6937;56.096;12.664;2024-03-17T02:42:09;102078.06;;;2.00;100.00
13732;BME280;6937;56.096;12.664;2024-03-17T02:44:38;102075.53;;;1.94;100.00
13732;BME280;6937;56.096;12.664;2024-03-17T02:47:05;102085.22;;;1.92;100.00
13732;BME280;6937;56.096;12.664;2024-03-17T02:49:31;102088.78;;;1.89;100.00
13732;BME280;6937;56.096;12.664;2024-03-17T02:52:01;102094.97;;;1.87;100.00
13732;BME280;6937;56.096;12.664;2024-03-17T02:54:26;102087.97;;;1.86;100.00
13732;BME280;6937;56.096;12.664;2024-03-17T02:56:52;102096.81;;;1.83;100.00
13732;BME280;6937;56.096;12.664;2024-03-17T02:59:17;102096.81;;;1.83;100.00
13732;BME280;6937;56.096;12.664;2024-03-17T03:01:43;102099.38;;;1.85;100.00
13732;BME280;6937;56.096;12.664;2024-03-17T03:04:10;102096.75;;;1.85;100.00
13732;BME280;6937;56.096;12.664;2024-03-17T03:06:35;102093.25;;;1.84;100.00
13732;BME280;6937;56.096;12.664;2024-03-17T03:09:00;102100.28;;;1.84;100.00
13732;BME280;6937;56.096;12.664;2024-03-17T03:11:26;102104.66;;;1.86;100.00
13732;BME280;6937;56.096;12.664;2024-03-17T03:13:51;102102.13;;;1.77;100.00
13732;BME280;6937;56.096;12.664;2024-03-17T03:16:16;102103.78;;;1.87;100.00
13732;BME280;6937;56.096;12.664;2024-03-17T03:18:44;102094.13;;;1.85;100.00
13732;BME280;6937;56.096;12.664;2024-03-17T03:21:10;102104.59;;;1.91;100.00
13732;BME280;6937;56.096;12.664;2024-03-17T03:23:36;102102.81;;;1.91;100.00
13732;BME280;6937;56.096;12.664;2024-03-17T03:26:03;102111.63;;;1.90;100.00
13732;BME280;6937;56.096;12.664;2024-03-17T03:28:30;102110.75;;;1.90;100.00
13732;BME280;6937;56.096;12.664;2024-03-17T03:30:56;102116.03;;;1.90;100.00
13732;BME280;6937;56.096;12.664;2024-03-17T03:33:22;102110.75;;;1.90;100.00
13732;BME280;6937;56.096;12.664;2024-03-17T03:35:48;102119.53;;;1.90;100.00
13732;BME280;6937;56.096;12.664;2024-03-17T03:38:14;102122.19;;;1.89;100.00
13732;BME280;6937;56.096;12.664;2024-03-17T03:40:40;102130.91;;;1.92;100.00
13732;BME280;6937;56.096;12.664;2024-03-17T03:43:07;102140.59;;;1.92;100.00
13732;BME280;6937;56.096;12.664;2024-03-17T03:45:33;102141.47;;;1.92;100.00
13732;BME280;6937;56.096;12.664;2024-03-17T03:47:59;102143.25;;;1.90;100.00
13732;BME280;6937;56.096;12.664;2024-03-17T03:50:24;102144.16;;;1.89;100.00
13732;BME280;6937;56.096;12.664;2024-03-17T03:52:50;102159.16;;;1.84;100.00
13732;BME280;6937;56.096;12.664;2024-03-17T03:55:16;102161.00;;;1.79;100.00
13732;BME280;6937;56.096;12.664;2024-03-17T03:57:42;102167.88;;;1.88;100.00
13732;BME280;6937;56.096;12.664;2024-03-17T04:00:08;102172.31;;;1.86;100.00
13732;BME280;6937;56.096;12.664;2024-03-17T04:02:47;102170.56;;;1.86;100.00
13732;BME280;6937;56.096;12.664;2024-03-17T04:05:13;102167.09;;;1.83;100.00
13732;BME280;6937;56.096;12.664;2024-03-17T04:07:39;102163.53;;;1.84;100.00
13732;BME280;6937;56.096;12.664;2024-03-17T04:10:06;102169.69;;;1.86;100.00
13732;BME280;6937;56.096;12.664;2024-03-17T04:12:31;102175.00;;;1.83;100.00
13732;BME280;6937;56.096;12.664;2024-03-17T04:14:57;102184.69;;;1.81;100.00
13732;BME280;6937;56.096;12.664;2024-03-17T04:17:23;102186.53;;;1.74;100.00
13732;BME280;6937;56.096;12.664;2024-03-17T04:19:52;102182.19;;;1.69;100.00
13732;BME280;6937;56.096;12.664;2024-03-17T04:22:19;102197.13;;;1.70;100.00
13732;BME280;6937;56.096;12.664;2024-03-17T04:24:46;102197.13;;;1.70;100.00
13732;BME280;6937;56.096;12.664;2024-03-17T04:27:12;102197.22;;;1.64;100.00
13732;BME280;6937;56.096;12.664;2024-03-17T04:29:38;102208.59;;;1.67;100.00
13732;BME280;6937;56.096;12.664;2024-03-17T04:32:04;102216.53;;;1.63;100.00
13732;BME280;6937;56.096;12.664;2024-03-17T04:34:31;102211.22;;;1.67;100.00
13732;BME280;6937;56.096;12.664;2024-03-17T04:36:56;102217.28;;;1.74;100.00
13732;BME280;6937;56.096;12.664;2024-03-17T04:39:23;102222.50;;;1.78;100.00
13732;BME280;6937;56.096;12.664;2024-03-17T04:41:48;102219.00;;;1.76;100.00
13732;BME280;6937;56.096;12.664;2024-03-17T04:44:15;102214.66;;;1.74;100.00
13732;BME280;6937;56.096;12.664;2024-03-17T04:46:40;102229.53;;;1.76;100.00
13732;BME280;6937;56.096;12.664;2024-03-17T04:49:06;102226.91;;;1.76;100.00
13732;BME280;6937;56.096;12.664;2024-03-17T04:51:31;102240.06;;;1.79;100.00
13732;BME280;6937;56.096;12.664;2024-03-17T04:53:58;102249.63;;;1.85;100.00
13732;BME280;6937;56.096;12.664;2024-03-17T04:56:24;102252.31;;;1.82;100.00
13732;BME280;6937;56.096;12.664;2024-03-17T04:58:49;102263.06;;;1.67;100.00
13732;BME280;6937;56.096;12.664;2024-03-17T05:01:15;102255.28;;;1.56;100.00
13732;BME280;6937;56.096;12.664;2024-03-17T05:03:40;102271.03;;;1.61;100.00
13732;BME280;6937;56.096;12.664;2024-03-17T05:06:06;102268.41;;;1.58;100.00
13732;BME280;6937;56.096;12.664;2024-03-17T05:08:33;102268.44;;;1.55;100.00
13732;BME280;6937;56.096;12.664;2024-03-17T05:11:01;102277.25;;;1.55;100.00
13732;BME280;6937;56.096;12.664;2024-03-17T05:13:30;102274.63;;;1.52;100.00
13732;BME280;6937;56.096;12.664;2024-03-17T05:15:56;102276.44;;;1.49;100.00
13732;BME280;6937;56.096;12.664;2024-03-17T05:18:22;102295.72;;;1.54;100.00
13732;BME280;6937;56.096;12.664;2024-03-17T05:20:57;102292.19;;;1.52;100.00
13732;BME280;6937;56.096;12.664;2024-03-17T05:23:25;102299.91;;;1.70;100.00
13732;BME280;6937;56.096;12.664;2024-03-17T05:25:51;102299.06;;;1.68;100.00
13732;BME280;6937;56.096;12.664;2024-03-17T05:28:17;102311.31;;;1.72;100.00
13732;BME280;6937;56.096;12.664;2024-03-17T05:30:42;102313.03;;;1.73;100.00
13732;BME280;6937;56.096;12.664;2024-03-17T05:33:07;102313.97;;;1.70;100.00
13732;BME280;6937;56.096;12.664;2024-03-17T05:35:33;102316.63;;;1.66;100.00
13732;BME280;6937;56.096;12.664;2024-03-17T05:37:58;102331.56;;;1.67;100.00
13732;BME280;6937;56.096;12.664;2024-03-17T05:40:23;102338.59;;;1.66;100.00
13732;BME280;6937;56.096;12.664;2024-03-17T05:42:49;102346.63;;;1.56;100.00
13732;BME280;6937;56.096;12.664;2024-03-17T05:45:15;102355.44;;;1.53;100.00
13732;BME280;6937;56.096;12.664;2024-03-17T05:47:41;102350.19;;;1.47;100.00
13732;BME280;6937;56.096;12.664;2024-03-17T05:50:07;102356.34;;;1.48;100.00
13732;BME280;6937;56.096;12.664;2024-03-17T05:52:32;102361.63;;;1.48;100.00
13732;BME280;6937;56.096;12.664;2024-03-17T05:54:58;102379.19;;;1.49;100.00
13732;BME280;6937;56.096;12.664;2024-03-17T05:57:23;102387.09;;;1.49;100.00
13732;BME280;6937;56.096;12.664;2024-03-17T05:59:49;102381.78;;;1.52;100.00
13732;BME280;6937;56.096;12.664;2024-03-17T06:02:15;102380.91;;;1.53;100.00
13732;BME280;6937;56.096;12.664;2024-03-17T06:04:41;102391.47;;;1.50;100.00
13732;BME280;6937;56.096;12.664;2024-03-17T06:07:06;102400.19;;;1.55;100.00
13732;BME280;6937;56.096;12.664;2024-03-17T06:09:32;102401.06;;;1.57;100.00
13732;BME280;6937;56.096;12.664;2024-03-17T06:11:57;102410.72;;;1.56;100.00
13732;BME280;6937;56.096;12.664;2024-03-17T06:14:23;102423.84;;;1.64;100.00
13732;BME280;6937;56.096;12.664;2024-03-17T06:16:48;102423.88;;;1.61;100.00
13732;BME280;6937;56.096;12.664;2024-03-17T06:19:13;102416.88;;;1.57;100.00
13732;BME280;6937;56.096;12.664;2024-03-17T06:21:40;102422.19;;;1.54;100.00
13732;BME280;6937;56.096;12.664;2024-03-17T06:24:05;102418.69;;;1.47;100.00
13732;BME280;6937;56.096;12.664;2024-03-17T06:26:32;102431.84;;;1.52;100.00
13732;BME280;6937;56.096;12.664;2024-03-17T06:29:02;102439.75;;;1.52;100.00
13732;BME280;6937;56.096;12.664;2024-03-17T06:31:27;102445.94;;;1.49;100.00
13732;BME280;6937;56.096;12.664;2024-03-17T06:33:52;102447.69;;;1.49;100.00
13732;BME280;6937;56.096;12.664;2024-03-17T06:36:18;102460.81;;;1.52;100.00
13732;BME280;6937;56.096;12.664;2024-03-17T06:38:43;102469.59;;;1.54;100.00
13732;BME280;6937;56.096;12.664;2024-03-17T06:41:11;102472.22;;;1.55;100.00
13732;BME280;6937;56.096;12.664;2024-03-17T06:43:40;102472.22;;;1.57;100.00
13732;BME280;6937;56.096;12.664;2024-03-17T06:46:07;102478.25;;;1.72;100.00
13732;BME280;6937;56.096;12.664;2024-03-17T06:48:33;102489.63;;;1.74;100.00
13732;BME280;6937;56.096;12.664;2024-03-17T06:50:59;102499.13;;;1.92;100.00
13732;BME280;6937;56.096;12.664;2024-03-17T06:53:24;102497.50;;;1.79;100.00
13732;BME280;6937;56.096;12.664;2024-03-17T06:55:57;102494.03;;;1.74;100.00
13732;BME280;6937;56.096;12.664;2024-03-17T06:58:24;102504.59;;;1.69;100.00
13732;BME280;6937;56.096;12.664;2024-03-17T07:01:00;102519.47;;;1.76;100.00
13732;BME280;6937;56.096;12.664;2024-03-17T07:03:30;102516.84;;;1.78;100.00
13732;BME280;6937;56.096;12.664;2024-03-17T07:05:58;102523.91;;;1.76;100.00
13732;BME280;6937;56.096;12.664;2024-03-17T07:08:24;102524.81;;;1.72;100.00
13732;BME280;6937;56.096;12.664;2024-03-17T07:11:01;102517.81;;;1.62;100.00
13732;BME280;6937;56.096;12.664;2024-03-17T07:13:32;102528.34;;;1.68;100.00
13732;BME280;6937;56.096;12.664;2024-03-17T07:16:01;102532.66;;;1.76;100.00
13732;BME280;6937;56.096;12.664;2024-03-17T07:18:28;102539.63;;;1.85;100.00
13732;BME280;6937;56.096;12.664;2024-03-17T07:21:03;102543.97;;;1.90;100.00
13732;BME280;6937;56.096;12.664;2024-03-17T07:23:29;102550.06;;;1.97;100.00
13732;BME280;6937;56.096;12.664;2024-03-17T07:25:56;102542.19;;;1.94;100.00
13732;BME280;6937;56.096;12.664;2024-03-17T07:28:22;102539.63;;;1.85;100.00
13732;BME280;6937;56.096;12.664;2024-03-17T07:30:55;102546.69;;;1.83;100.00
13732;BME280;6937;56.096;12.664;2024-03-17T07:33:22;102552.81;;;1.83;100.00
13732;BME280;6937;56.096;12.664;2024-03-17T07:35:54;102559.84;;;1.87;100.00
13732;BME280;6937;56.096;12.664;2024-03-17T07:38:22;102560.69;;;1.88;100.00
13732;BME280;6937;56.096;12.664;2024-03-17T07:40:58;102552.78;;;1.88;100.00
13732;BME280;6937;56.096;12.664;2024-03-17T07:43:24;102557.16;;;1.89;100.00
13732;BME280;6937;56.096;12.664;2024-03-17T07:46:06;102570.38;;;1.86;100.00
13732;BME280;6937;56.096;12.664;2024-03-17T07:48:36;102587.00;;;1.94;100.00
13732;BME280;6937;56.096;12.664;2024-03-17T07:51:04;102593.97;;;2.03;100.00
13732;BME280;6937;56.096;12.664;2024-03-17T07:53:31;102586.94;;;2.05;100.00
13732;BME280;6937;56.096;12.664;2024-03-17T07:56:00;102608.91;;;2.05;100.00
13732;BME280;6937;56.096;12.664;2024-03-17T07:58:26;102610.56;;;2.14;100.00
13732;BME280;6937;56.096;12.664;2024-03-17T08:00:58;102607.03;;;2.21;100.00
13732;BME280;6937;56.096;12.664;2024-03-17T08:03:27;102607.06;;;2.15;100.00
13732;BME280;6937;56.096;12.664;2024-03-17T08:05:53;102605.31;;;2.12;100.00
13732;BME280;6937;56.096;12.664;2024-03-17T08:08:19;102611.44;;;2.17;100.00
13732;BME280;6937;56.096;12.664;2024-03-17T08:10:44;102612.22;;;2.25;100.00
13732;BME280;6937;56.096;12.664;2024-03-17T08:13:11;102618.38;;;2.26;100.00
13732;BME280;6937;56.096;12.664;2024-03-17T08:15:38;102621.06;;;2.24;100.00
13732;BME280;6937;56.096;12.664;2024-03-17T08:18:03;102615.78;;;2.24;100.00
13732;BME280;6937;56.096;12.664;2024-03-17T08:20:36;102623.69;;;2.24;100.00
13732;BME280;6937;56.096;12.664;2024-03-17T08:23:01;102638.59;;;2.30;100.00
13732;BME280;6937;56.096;12.664;2024-03-17T08:25:27;102646.41;;;2.40;100.00
13732;BME280;6937;56.096;12.664;2024-03-17T08:27:52;102654.28;;;2.47;100.00
13732;BME280;6937;56.096;12.664;2024-03-17T08:30:17;102641.09;;;2.47;100.00
13732;BME280;6937;56.096;12.664;2024-03-17T08:32:44;102659.50;;;2.53;100.00
13732;BME280;6937;56.096;12.664;2024-03-17T08:35:10;102663.81;;;2.60;100.00
13732;BME280;6937;56.096;12.664;2024-03-17T08:37:38;102670.84;;;2.65;100.00
13732;BME280;6937;56.096;12.664;2024-03-17T08:40:04;102657.63;;;2.64;100.00
13732;BME280;6937;56.096;12.664;2024-03-17T08:42:32;102661.13;;;2.67;100.00
13732;BME280;6937;56.096;12.664;2024-03-17T08:44:57;102662.88;;;2.68;100.00
13732;BME280;6937;56.096;12.664;2024-03-17T08:47:22;102682.09;;;2.82;100.00
13732;BME280;6937;56.096;12.664;2024-03-17T08:49:50;102684.69;;;2.88;100.00
13732;BME280;6937;56.096;12.664;2024-03-17T08:52:16;102692.59;;;2.90;100.00
13732;BME280;6937;56.096;12.664;2024-03-17T08:54:41;102682.91;;;2.90;100.00
13732;BME280;6937;56.096;12.664;2024-03-17T08:57:08;102690.72;;;3.01;100.00
13732;BME280;6937;56.096;12.664;2024-03-17T08:59:33;102691.47;;;3.14;100.00
13732;BME280;6937;56.096;12.664;2024-03-17T09:01:58;102676.53;;;3.08;100.00
13732;BME280;6937;56.096;12.664;2024-03-17T09:04:24;102680.97;;;3.06;100.00
13732;BME280;6937;56.096;12.664;2024-03-17T09:06:49;102693.28;;;3.10;100.00
13732;BME280;6937;56.096;12.664;2024-03-17T09:09:15;102697.63;;;3.14;100.00
13732;BME280;6937;56.096;12.664;2024-03-17T09:11:40;102705.50;;;3.17;100.00
13732;BME280;6937;56.096;12.664;2024-03-17T09:14:06;102716.88;;;3.25;100.00
13732;BME280;6937;56.096;12.664;2024-03-17T09:16:31;102721.16;;;3.35;100.00
13732;BME280;6937;56.096;12.664;2024-03-17T09:18:57;102706.19;;;3.36;100.00
13732;BME280;6937;56.096;12.664;2024-03-17T09:21:22;102713.97;;;3.47;100.00
13732;BME280;6937;56.096;12.664;2024-03-17T09:23:48;102705.25;;;3.38;100.00
13732;BME280;6937;56.096;12.664;2024-03-17T09:26:15;102686.13;;;3.18;100.00
13732;BME280;6937;56.096;12.664;2024-03-17T09:28:42;102701.06;;;3.22;100.00
13732;BME280;6937;56.096;12.664;2024-03-17T09:31:10;102716.72;;;3.39;100.00
13732;BME280;6937;56.096;12.664;2024-03-17T09:33:36;102715.00;;;3.36;100.00
13732;BME280;6937;56.096;12.664;2024-03-17T09:36:07;102714.16;;;3.31;100.00
13732;BME280;6937;56.096;12.664;2024-03-17T09:38:33;102731.72;;;3.34;100.00
13732;BME280;6937;56.096;12.664;2024-03-17T09:40:59;102726.63;;;3.22;100.00
13732;BME280;6937;56.096;12.664;2024-03-17T09:43:31;102729.19;;;3.26;100.00
13732;BME280;6937;56.096;12.664;2024-03-17T09:45:57;102742.22;;;3.41;100.00
13732;BME280;6937;56.096;12.664;2024-03-17T09:48:24;102736.84;;;3.51;100.00
13732;BME280;6937;56.096;12.664;2024-03-17T09:50:51;102730.63;;;3.55;100.00
13732;BME280;6937;56.096;12.664;2024-03-17T09:53:25;102737.56;;;3.65;100.00
13732;BME280;6937;56.096;12.664;2024-03-17T09:55:52;102719.09;;;3.63;100.00
13732;BME280;6937;56.096;12.664;2024-03-17T09:58:19;102724.47;;;3.56;100.00
13732;BME280;6937;56.096;12.664;2024-03-17T10:00:45;102726.97;;;3.65;100.00
13732;BME280;6937;56.096;12.664;2024-03-17T10:03:12;102720.88;;;3.60;100.00
13732;BME280;6937;56.096;12.664;2024-03-17T10:05:38;102724.41;;;3.59;100.00
13732;BME280;6937;56.096;12.664;2024-03-17T10:08:03;102741.91;;;3.70;100.00
13732;BME280;6937;56.096;12.664;2024-03-17T10:10:29;102727.81;;;3.68;100.00
13732;BME280;6937;56.096;12.664;2024-03-17T10:12:54;102731.31;;;3.70;100.00
13732;BME280;6937;56.096;12.664;2024-03-17T10:15:20;102733.06;;;3.71;100.00
13732;BME280;6937;56.096;12.664;2024-03-17T10:17:46;102740.06;;;3.75;100.00
13732;BME280;6937;56.096;12.664;2024-03-17T10:20:19;102747.94;;;3.80;100.00
13732;BME280;6937;56.096;12.664;2024-03-17T10:23:02;102755.88;;;3.81;100.00
13732;BME280;6937;56.096;12.664;2024-03-17T10:25:30;102744.28;;;3.90;100.00
13732;BME280;6937;56.096;12.664;2024-03-17T10:27:55;102743.38;;;3.93;100.00
13732;BME280;6937;56.096;12.664;2024-03-17T10:30:22;102758.38;;;3.94;100.00
13732;BME280;6937;56.096;12.664;2024-03-17T10:32:53;102754.75;;;4.01;100.00
13732;BME280;6937;56.096;12.664;2024-03-17T10:35:30;102735.44;;;3.91;100.00
13732;BME280;6937;56.096;12.664;2024-03-17T10:38:03;102757.28;;;4.05;100.00
13732;BME280;6937;56.096;12.664;2024-03-17T10:40:32;102762.56;;;4.08;100.00
13732;BME280;6937;56.096;12.664;2024-03-17T10:43:00;102775.53;;;4.26;100.00
13732;BME280;6937;56.096;12.664;2024-03-17T10:45:26;102767.59;;;4.26;100.00
13732;BME280;6937;56.096;12.664;2024-03-17T10:47:56;102779.91;;;4.30;100.00
13732;BME280;6937;56.096;12.664;2024-03-17T10:50:27;102788.72;;;4.31;100.00
13732;BME280;6937;56.096;12.664;2024-03-17T10:52:55;102813.22;;;4.44;100.00
13732;BME280;6937;56.096;12.664;2024-03-17T10:55:24;102799.13;;;4.43;100.00
13732;BME280;6937;56.096;12.664;2024-03-17T10:57:52;102802.47;;;4.54;100.00
13732;BME280;6937;56.096;12.664;2024-03-17T11:00:20;102808.75;;;4.49;100.00
13732;BME280;6937;56.096;12.664;2024-03-17T11:02:48;102812.28;;;4.49;100.00
13732;BME280;6937;56.096;12.664;2024-03-17T11:05:16;102835.78;;;4.72;100.00
13732;BME280;6937;56.096;12.664;2024-03-17T11:07:43;102827.91;;;4.67;100.00
13732;BME280;6937;56.096;12.664;2024-03-17T11:10:16;102829.56;;;4.74;100.00
13732;BME280;6937;56.096;12.664;2024-03-17T11:17:44;102816.53;;;4.58;100.00
13732;BME280;6937;56.096;12.664;2024-03-17T11:20:15;102819.25;;;4.56;100.00
13732;BME280;6937;56.096;12.664;2024-03-17T11:22:41;102823.66;;;4.54;100.00
13732;BME280;6937;56.096;12.664;2024-03-17T11:28:02;102836.06;;;4.52;100.00
13732;BME280;6937;56.096;12.664;2024-03-17T11:41:37;102822.38;;;4.82;100.00
13732;BME280;6937;56.096;12.664;2024-03-17T11:46:53;102815.94;;;4.97;100.00
13732;BME280;6937;56.096;12.664;2024-03-17T11:49:33;102830.00;;;5.01;100.00
13732;BME280;6937;56.096;12.664;2024-03-17T11:52:01;102820.38;;;4.97;100.00
13732;BME280;6937;56.096;12.664;2024-03-17T11:54:30;102823.59;;;5.14;100.00
13732;BME280;6937;56.096;12.664;2024-03-17T11:57:00;102819.03;;;5.22;100.00
13732;BME280;6937;56.096;12.664;2024-03-17T11:59:26;102811.91;;;5.27;100.00
13732;BME280;6937;56.096;12.664;2024-03-17T12:01:52;102810.13;;;5.26;100.00
13732;BME280;6937;56.096;12.664;2024-03-17T12:04:22;102806.78;;;5.16;100.00
13732;BME280;6937;56.096;12.664;2024-03-17T12:06:50;102798.16;;;5.04;100.00
13732;BME280;6937;56.096;12.664;2024-03-17T12:09:29;102826.97;;;5.23;100.00
13732;BME280;6937;56.096;12.664;2024-03-17T12:14:35;102811.69;;;5.38;100.00
13732;BME280;6937;56.096;12.664;2024-03-17T12:17:09;102822.31;;;5.38;100.00
13732;BME280;6937;56.096;12.664;2024-03-17T12:19:36;102824.84;;;5.44;100.00
13732;BME280;6937;56.096;12.664;2024-03-17T12:22:03;102836.75;;;5.69;100.00
13732;BME280;6937;56.096;12.664;2024-03-17T12:24:34;102828.56;;;5.81;100.00
13732;BME280;6937;56.096;12.664;2024-03-17T12:27:00;102814.38;;;5.82;100.00
13732;BME280;6937;56.096;12.664;2024-03-17T12:29:32;102821.81;;;5.65;100.00
13732;BME280;6937;56.096;12.664;2024-03-17T12:32:00;102810.69;;;5.45;100.00
13732;BME280;6937;56.096;12.664;2024-03-17T12:34:30;102834.41;;;5.52;100.00
13732;BME280;6937;56.096;12.664;2024-03-17T12:36:57;102851.66;;;5.74;100.00
13732;BME280;6937;56.096;12.664;2024-03-17T12:39:24;102845.47;;;5.77;100.00
13732;BME280;6937;56.096;12.664;2024-03-17T12:42:02;102837.59;;;5.71;100.00
13732;BME280;6937;56.096;12.664;2024-03-17T12:44:28;102854.31;;;5.76;100.00
13732;BME280;6937;56.096;12.664;2024-03-17T12:46:56;102843.63;;;5.80;100.00
13732;BME280;6937;56.096;12.664;2024-03-17T12:49:22;102852.63;;;5.72;100.00
13732;BME280;6937;56.096;12.664;2024-03-17T12:51:50;102841.34;;;5.61;100.00
13732;BME280;6937;56.096;12.664;2024-03-17T12:54:15;102844.81;;;5.63;100.00
13732;BME280;6937;56.096;12.664;2024-03-17T12:56:44;102852.41;;;5.82;100.00
13732;BME280;6937;56.096;12.664;2024-03-17T12:59:41;102837.75;;;6.08;100.00
13732;BME280;6937;56.096;12.664;2024-03-17T13:02:25;102836.63;;;6.19;100.00
13732;BME280;6937;56.096;12.664;2024-03-17T13:05:14;102824.97;;;6.26;100.00
13732;BME280;6937;56.096;12.664;2024-03-17T13:07:47;102834.59;;;6.34;100.00
13732;BME280;6937;56.096;12.664;2024-03-17T13:10:19;102826.16;;;6.53;100.00
13732;BME280;6937;56.096;12.664;2024-03-17T13:12:46;102822.91;;;6.41;100.00
13732;BME280;6937;56.096;12.664;2024-03-17T13:15:13;102824.88;;;6.32;100.00